sensor_id;sensor_type;location;lat;lon;timestamp;temperature;humidity
6552;DHT22;3309;48.708;9.290;2024-01-10T00:02:04;-3.90;1.00
6552;DHT22;3309;48.708;9.290;2024-01-10T00:04:31;-3.90;1.00
6552;DHT22;3309;48.708;9.290;2024-01-10T00:06:57;-3.90;1.00
6552;DHT22;3309;48.708;9.290;2024-01-10T00:09:23;-3.80;99.90
6552;DHT22;3309;48.708;9.290;2024-01-10T00:11:53;-3.80;1.00
6552;DHT22;3309;48.708;9.290;2024-01-10T00:14:20;-3.80;1.00
6552;DHT22;3309;48.708;9.290;2024-01-10T00:16:47;-3.80;1.00
6552;DHT22;3309;48.708;9.290;2024-01-10T00:19:12;-3.80;1.00
6552;DHT22;3309;48.708;9.290;2024-01-10T00:21:38;-3.80;1.00
6552;DHT22;3309;48.708;9.290;2024-01-10T00:24:03;-3.90;2.90
6552;DHT22;3309;48.708;9.290;2024-01-10T00:26:29;-3.90;99.90
6552;DHT22;3309;48.708;9.290;2024-01-10T00:28:56;-3.90;99.90
6552;DHT22;3309;48.708;9.290;2024-01-10T00:31:22;-3.90;99.90
6552;DHT22;3309;48.708;9.290;2024-01-10T00:33:47;-3.90;99.90
6552;DHT22;3309;48.708;9.290;2024-01-10T00:36:13;-3.80;99.90
6552;DHT22;3309;48.708;9.290;2024-01-10T00:38:39;-3.80;99.90
6552;DHT22;3309;48.708;9.290;2024-01-10T00:41:05;-3.80;1.00
6552;DHT22;3309;48.708;9.290;2024-01-10T00:43:30;-3.80;1.00
6552;DHT22;3309;48.708;9.290;2024-01-10T00:45:56;-3.90;1.00
6552;DHT22;3309;48.708;9.290;2024-01-10T00:48:21;-3.80;1.00
6552;DHT22;3309;48.708;9.290;2024-01-10T00:50:47;-3.80;1.00
6552;DHT22;3309;48.708;9.290;2024-01-10T00:53:13;-3.70;1.00
6552;DHT22;3309;48.708;9.290;2024-01-10T00:55:39;-3.70;1.00
6552;DHT22;3309;48.708;9.290;2024-01-10T00:58:04;-3.60;1.00
6552;DHT22;3309;48.708;9.290;2024-01-10T01:00:30;-3.60;1.00
6552;DHT22;3309;48.708;9.290;2024-01-10T01:02:55;-3.50;1.00
6552;DHT22;3309;48.708;9.290;2024-01-10T01:05:21;-3.50;1.00
6552;DHT22;3309;48.708;9.290;2024-01-10T01:07:47;-3.50;1.00
6552;DHT22;3309;48.708;9.290;2024-01-10T01:10:12;-3.50;1.00
6552;DHT22;3309;48.708;9.290;2024-01-10T01:12:38;-3.50;1.00
6552;DHT22;3309;48.708;9.290;2024-01-10T01:15:05;-3.50;1.00
6552;DHT22;3309;48.708;9.290;2024-01-10T01:17:30;-3.50;1.00
6552;DHT22;3309;48.708;9.290;2024-01-10T01:19:56;-3.50;1.00
6552;DHT22;3309;48.708;9.290;2024-01-10T01:22:23;-3.50;1.00
6552;DHT22;3309;48.708;9.290;2024-01-10T01:24:48;-3.40;1.00
6552;DHT22;3309;48.708;9.290;2024-01-10T01:27:14;-3.40;1.00
6552;DHT22;3309;48.708;9.290;2024-01-10T01:29:39;-3.40;1.00
6552;DHT22;3309;48.708;9.290;2024-01-10T01:32:05;-3.30;1.00
6552;DHT22;3309;48.708;9.290;2024-01-10T01:34:31;-3.30;1.00
6552;DHT22;3309;48.708;9.290;2024-01-10T01:36:56;-3.30;15.40
6552;DHT22;3309;48.708;9.290;2024-01-10T01:39:22;-3.20;87.90
6552;DHT22;3309;48.708;9.290;2024-01-10T01:41:47;-3.20;99.90
6552;DHT22;3309;48.708;9.290;2024-01-10T01:44:13;-3.10;29.80
6552;DHT22;3309;48.708;9.290;2024-01-10T01:46:39;-3.10;72.10
6552;DHT22;3309;48.708;9.290;2024-01-10T01:51:32;-3.10;1.00
6552;DHT22;3309;48.708;9.290;2024-01-10T01:53:58;-3.20;99.90
6552;DHT22;3309;48.708;9.290;2024-01-10T01:56:25;-3.20;1.00
6552;DHT22;3309;48.708;9.290;2024-01-10T01:58:52;-3.20;1.00
6552;DHT22;3309;48.708;9.290;2024-01-10T02:01:19;-3.30;1.00
6552;DHT22;3309;48.708;9.290;2024-01-10T02:03:48;-3.30;99.90
6552;DHT22;3309;48.708;9.290;2024-01-10T02:06:13;-3.30;1.00
6552;DHT22;3309;48.708;9.290;2024-01-10T02:08:39;-3.40;1.00
6552;DHT22;3309;48.708;9.290;2024-01-10T02:11:05;-3.40;99.90
6552;DHT22;3309;48.708;9.290;2024-01-10T02:13:34;-3.40;1.00
6552;DHT22;3309;48.708;9.290;2024-01-10T02:15:59;-3.40;1.00
6552;DHT22;3309;48.708;9.290;2024-01-10T02:18:25;-3.30;1.00
6552;DHT22;3309;48.708;9.290;2024-01-10T02:20:51;-3.40;99.90
6552;DHT22;3309;48.708;9.290;2024-01-10T02:23:19;-3.20;99.90
6552;DHT22;3309;48.708;9.290;2024-01-10T02:25:45;-3.30;1.00
6552;DHT22;3309;48.708;9.290;2024-01-10T02:28:11;-3.50;99.90
6552;DHT22;3309;48.708;9.290;2024-01-10T02:30:37;-3.50;1.00
6552;DHT22;3309;48.708;9.290;2024-01-10T02:33:04;-3.50;99.90
6552;DHT22;3309;48.708;9.290;2024-01-10T02:35:30;-3.40;1.00
6552;DHT22;3309;48.708;9.290;2024-01-10T02:37:58;-3.40;1.00
6552;DHT22;3309;48.708;9.290;2024-01-10T02:40:24;-3.40;1.00
6552;DHT22;3309;48.708;9.290;2024-01-10T02:42:49;-3.30;1.00
6552;DHT22;3309;48.708;9.290;2024-01-10T02:45:21;-3.40;99.90
6552;DHT22;3309;48.708;9.290;2024-01-10T02:47:46;-3.30;99.90
6552;DHT22;3309;48.708;9.290;2024-01-10T02:50:12;-3.40;99.90
6552;DHT22;3309;48.708;9.290;2024-01-10T02:52:38;-3.40;99.90
6552;DHT22;3309;48.708;9.290;2024-01-10T02:55:04;-3.40;99.90
6552;DHT22;3309;48.708;9.290;2024-01-10T02:57:30;-3.50;1.00
6552;DHT22;3309;48.708;9.290;2024-01-10T02:59:56;-3.50;1.00
6552;DHT22;3309;48.708;9.290;2024-01-10T03:02:21;-3.40;4.90
6552;DHT22;3309;48.708;9.290;2024-01-10T03:04:50;-3.40;1.00
6552;DHT22;3309;48.708;9.290;2024-01-10T03:07:16;-3.40;1.00
6552;DHT22;3309;48.708;9.290;2024-01-10T03:09:42;-3.30;99.90
6552;DHT22;3309;48.708;9.290;2024-01-10T03:12:11;-3.30;99.90
6552;DHT22;3309;48.708;9.290;2024-01-10T03:14:37;-3.30;1.00
6552;DHT22;3309;48.708;9.290;2024-01-10T03:17:03;-3.20;1.00
6552;DHT22;3309;48.708;9.290;2024-01-10T03:19:29;-3.10;1.00
6552;DHT22;3309;48.708;9.290;2024-01-10T03:21:54;-3.00;1.00
6552;DHT22;3309;48.708;9.290;2024-01-10T03:24:21;-3.00;1.00
6552;DHT22;3309;48.708;9.290;2024-01-10T03:26:49;-3.00;99.90
6552;DHT22;3309;48.708;9.290;2024-01-10T03:29:15;-2.90;99.90
6552;DHT22;3309;48.708;9.290;2024-01-10T03:31:40;-2.90;99.90
6552;DHT22;3309;48.708;9.290;2024-01-10T03:34:06;-2.90;99.90
6552;DHT22;3309;48.708;9.290;2024-01-10T03:36:31;-2.90;32.50
6552;DHT22;3309;48.708;9.290;2024-01-10T03:38:57;-2.90;1.00
6552;DHT22;3309;48.708;9.290;2024-01-10T03:41:22;-2.90;1.00
6552;DHT22;3309;48.708;9.290;2024-01-10T03:43:48;-2.90;1.00
6552;DHT22;3309;48.708;9.290;2024-01-10T03:46:14;-2.90;1.00
6552;DHT22;3309;48.708;9.290;2024-01-10T03:48:40;-2.90;17.30
6552;DHT22;3309;48.708;9.290;2024-01-10T03:51:14;-3.00;99.90
6552;DHT22;3309;48.708;9.290;2024-01-10T03:53:40;-3.00;1.00
6552;DHT22;3309;48.708;9.290;2024-01-10T03:56:06;-3.00;1.00
6552;DHT22;3309;48.708;9.290;2024-01-10T03:58:32;-2.90;1.00
6552;DHT22;3309;48.708;9.290;2024-01-10T04:00:57;-2.90;1.00
6552;DHT22;3309;48.708;9.290;2024-01-10T04:03:23;-2.90;99.90
6552;DHT22;3309;48.708;9.290;2024-01-10T04:05:49;-2.90;99.90
6552;DHT22;3309;48.708;9.290;2024-01-10T04:08:14;-2.90;3.80
6552;DHT22;3309;48.708;9.290;2024-01-10T04:10:40;-2.90;1.00
6552;DHT22;3309;48.708;9.290;2024-01-10T04:13:06;-2.90;1.00
6552;DHT22;3309;48.708;9.290;2024-01-10T04:15:32;-3.10;99.90
6552;DHT22;3309;48.708;9.290;2024-01-10T04:17:57;-3.20;1.00
6552;DHT22;3309;48.708;9.290;2024-01-10T04:20:24;-3.30;99.90
6552;DHT22;3309;48.708;9.290;2024-01-10T04:22:50;-3.30;99.90
6552;DHT22;3309;48.708;9.290;2024-01-10T04:25:15;-3.20;1.00
6552;DHT22;3309;48.708;9.290;2024-01-10T04:27:41;-3.20;99.90
6552;DHT22;3309;48.708;9.290;2024-01-10T04:30:09;-3.10;1.00
6552;DHT22;3309;48.708;9.290;2024-01-10T04:32:35;-3.10;99.90
6552;DHT22;3309;48.708;9.290;2024-01-10T04:35:00;-3.00;99.90
6552;DHT22;3309;48.708;9.290;2024-01-10T04:37:26;-2.90;1.00
6552;DHT22;3309;48.708;9.290;2024-01-10T04:39:52;-3.00;1.00
6552;DHT22;3309;48.708;9.290;2024-01-10T04:42:17;-2.30;1.00
6552;DHT22;3309;48.708;9.290;2024-01-10T04:44:43;-3.00;1.00
6552;DHT22;3309;48.708;9.290;2024-01-10T04:47:08;-3.00;1.00
6552;DHT22;3309;48.708;9.290;2024-01-10T04:49:34;-2.90;1.00
6552;DHT22;3309;48.708;9.290;2024-01-10T04:52:00;-3.00;1.00
6552;DHT22;3309;48.708;9.290;2024-01-10T04:54:26;-3.00;1.00
6552;DHT22;3309;48.708;9.290;2024-01-10T04:56:52;-3.00;1.00
6552;DHT22;3309;48.708;9.290;2024-01-10T04:59:17;-3.10;1.00
6552;DHT22;3309;48.708;9.290;2024-01-10T05:01:43;-3.10;1.00
6552;DHT22;3309;48.708;9.290;2024-01-10T05:04:09;-2.80;1.00
6552;DHT22;3309;48.708;9.290;2024-01-10T05:06:34;-3.30;1.00
6552;DHT22;3309;48.708;9.290;2024-01-10T05:09:00;-3.40;1.00
6552;DHT22;3309;48.708;9.290;2024-01-10T05:11:25;-3.80;3.60
6552;DHT22;3309;48.708;9.290;2024-01-10T05:13:52;-3.40;99.90
6552;DHT22;3309;48.708;9.290;2024-01-10T05:16:17;-3.30;1.00
6552;DHT22;3309;48.708;9.290;2024-01-10T05:18:43;-3.30;1.00
6552;DHT22;3309;48.708;9.290;2024-01-10T05:21:09;-3.20;1.00
6552;DHT22;3309;48.708;9.290;2024-01-10T05:23:35;-3.10;99.90
6552;DHT22;3309;48.708;9.290;2024-01-10T05:26:01;-3.00;99.90
6552;DHT22;3309;48.708;9.290;2024-01-10T05:28:26;-3.00;99.90
6552;DHT22;3309;48.708;9.290;2024-01-10T05:30:52;-2.90;99.90
6552;DHT22;3309;48.708;9.290;2024-01-10T05:33:19;-2.90;99.90
6552;DHT22;3309;48.708;9.290;2024-01-10T05:35:45;-2.90;99.90
6552;DHT22;3309;48.708;9.290;2024-01-10T05:38:11;-2.90;99.90
6552;DHT22;3309;48.708;9.290;2024-01-10T05:40:36;-2.90;99.90
6552;DHT22;3309;48.708;9.290;2024-01-10T05:43:02;-2.80;4.20
6552;DHT22;3309;48.708;9.290;2024-01-10T05:45:28;-2.70;1.00
6552;DHT22;3309;48.708;9.290;2024-01-10T05:47:54;-2.80;1.00
6552;DHT22;3309;48.708;9.290;2024-01-10T05:50:19;-2.80;19.00
6552;DHT22;3309;48.708;9.290;2024-01-10T05:52:46;-2.80;91.20
6552;DHT22;3309;48.708;9.290;2024-01-10T05:55:12;-2.80;99.90
6552;DHT22;3309;48.708;9.290;2024-01-10T05:57:38;-2.80;99.90
6552;DHT22;3309;48.708;9.290;2024-01-10T06:00:04;-2.90;99.90
6552;DHT22;3309;48.708;9.290;2024-01-10T06:02:37;-2.80;99.90
6552;DHT22;3309;48.708;9.290;2024-01-10T06:05:06;-2.80;99.90
6552;DHT22;3309;48.708;9.290;2024-01-10T06:07:32;-2.90;99.90
6552;DHT22;3309;48.708;9.290;2024-01-10T06:09:59;-2.80;99.90
6552;DHT22;3309;48.708;9.290;2024-01-10T06:12:24;-2.90;99.90
6552;DHT22;3309;48.708;9.290;2024-01-10T06:14:51;-2.90;99.90
6552;DHT22;3309;48.708;9.290;2024-01-10T06:17:19;-2.90;99.90
6552;DHT22;3309;48.708;9.290;2024-01-10T06:19:44;-2.90;99.90
6552;DHT22;3309;48.708;9.290;2024-01-10T06:22:10;-3.00;99.90
6552;DHT22;3309;48.708;9.290;2024-01-10T06:24:37;-2.90;99.90
6552;DHT22;3309;48.708;9.290;2024-01-10T06:27:03;-3.00;99.90
6552;DHT22;3309;48.708;9.290;2024-01-10T06:29:30;-3.00;1.00
6552;DHT22;3309;48.708;9.290;2024-01-10T06:31:56;-3.00;1.00
6552;DHT22;3309;48.708;9.290;2024-01-10T06:34:23;-3.00;1.00
6552;DHT22;3309;48.708;9.290;2024-01-10T06:36:50;-3.00;1.00
6552;DHT22;3309;48.708;9.290;2024-01-10T06:39:16;-3.10;1.00
6552;DHT22;3309;48.708;9.290;2024-01-10T06:41:48;-3.20;1.00
6552;DHT22;3309;48.708;9.290;2024-01-10T06:44:14;-3.20;1.00
6552;DHT22;3309;48.708;9.290;2024-01-10T06:46:39;-3.20;1.00
6552;DHT22;3309;48.708;9.290;2024-01-10T06:49:05;-3.30;99.90
6552;DHT22;3309;48.708;9.290;2024-01-10T06:51:32;-3.20;99.90
6552;DHT22;3309;48.708;9.290;2024-01-10T06:53:58;-3.30;99.90
6552;DHT22;3309;48.708;9.290;2024-01-10T06:56:32;-3.30;99.90
6552;DHT22;3309;48.708;9.290;2024-01-10T06:58:59;-3.30;99.90
6552;DHT22;3309;48.708;9.290;2024-01-10T07:01:24;-3.30;99.90
6552;DHT22;3309;48.708;9.290;2024-01-10T07:03:52;-3.40;99.90
6552;DHT22;3309;48.708;9.290;2024-01-10T07:06:17;-3.40;99.90
6552;DHT22;3309;48.708;9.290;2024-01-10T07:08:43;-3.30;1.00
6552;DHT22;3309;48.708;9.290;2024-01-10T07:11:10;-3.40;1.00
6552;DHT22;3309;48.708;9.290;2024-01-10T07:13:37;-3.40;1.00
6552;DHT22;3309;48.708;9.290;2024-01-10T07:16:03;-3.40;1.00
6552;DHT22;3309;48.708;9.290;2024-01-10T07:18:29;-3.40;1.00
6552;DHT22;3309;48.708;9.290;2024-01-10T07:20:55;-3.20;99.90
6552;DHT22;3309;48.708;9.290;2024-01-10T07:23:20;-3.40;1.00
6552;DHT22;3309;48.708;9.290;2024-01-10T07:25:46;-3.40;1.00
6552;DHT22;3309;48.708;9.290;2024-01-10T07:28:12;-3.40;1.00
6552;DHT22;3309;48.708;9.290;2024-01-10T07:30:37;-3.40;1.00
6552;DHT22;3309;48.708;9.290;2024-01-10T07:33:03;-2.60;1.00
6552;DHT22;3309;48.708;9.290;2024-01-10T07:35:28;-3.50;1.00
6552;DHT22;3309;48.708;9.290;2024-01-10T07:37:55;-3.50;1.00
6552;DHT22;3309;48.708;9.290;2024-01-10T07:40:21;-2.60;1.00
6552;DHT22;3309;48.708;9.290;2024-01-10T07:42:47;-3.40;1.00
6552;DHT22;3309;48.708;9.290;2024-01-10T07:45:13;-3.30;1.00
6552;DHT22;3309;48.708;9.290;2024-01-10T07:47:40;-3.30;1.00
6552;DHT22;3309;48.708;9.290;2024-01-10T07:50:09;-3.20;1.00
6552;DHT22;3309;48.708;9.290;2024-01-10T07:52:36;-3.20;1.00
6552;DHT22;3309;48.708;9.290;2024-01-10T07:55:02;-3.20;1.00
6552;DHT22;3309;48.708;9.290;2024-01-10T07:57:30;-3.10;1.00
6552;DHT22;3309;48.708;9.290;2024-01-10T07:59:57;-3.00;1.00
6552;DHT22;3309;48.708;9.290;2024-01-10T08:02:23;-2.80;1.00
6552;DHT22;3309;48.708;9.290;2024-01-10T08:04:49;-2.70;1.00
6552;DHT22;3309;48.708;9.290;2024-01-10T08:07:14;-2.60;1.00
6552;DHT22;3309;48.708;9.290;2024-01-10T08:09:40;-2.50;1.00
6552;DHT22;3309;48.708;9.290;2024-01-10T08:12:06;-2.30;1.00
6552;DHT22;3309;48.708;9.290;2024-01-10T08:14:32;-2.10;99.90
6552;DHT22;3309;48.708;9.290;2024-01-10T08:16:58;-1.90;99.90
6552;DHT22;3309;48.708;9.290;2024-01-10T08:19:27;-1.70;99.90
6552;DHT22;3309;48.708;9.290;2024-01-10T08:21:53;-1.30;99.90
6552;DHT22;3309;48.708;9.290;2024-01-10T08:24:20;-0.50;99.90
6552;DHT22;3309;48.708;9.290;2024-01-10T08:26:47;0.70;1.00
6552;DHT22;3309;48.708;9.290;2024-01-10T08:29:18;1.90;1.00
6552;DHT22;3309;48.708;9.290;2024-01-10T08:31:44;3.00;1.00
6552;DHT22;3309;48.708;9.290;2024-01-10T08:34:10;3.90;1.00
6552;DHT22;3309;48.708;9.290;2024-01-10T08:36:36;4.60;1.00
6552;DHT22;3309;48.708;9.290;2024-01-10T08:39:02;5.30;1.00
6552;DHT22;3309;48.708;9.290;2024-01-10T08:41:29;5.70;1.00
6552;DHT22;3309;48.708;9.290;2024-01-10T08:43:54;6.20;1.00
6552;DHT22;3309;48.708;9.290;2024-01-10T08:46:21;6.20;1.00
6552;DHT22;3309;48.708;9.290;2024-01-10T08:48:46;6.80;1.00
6552;DHT22;3309;48.708;9.290;2024-01-10T08:51:13;7.10;1.00
6552;DHT22;3309;48.708;9.290;2024-01-10T08:53:41;7.20;1.00
6552;DHT22;3309;48.708;9.290;2024-01-10T08:56:07;6.90;1.00
6552;DHT22;3309;48.708;9.290;2024-01-10T08:58:33;7.20;1.00
6552;DHT22;3309;48.708;9.290;2024-01-10T09:00:59;7.40;1.00
6552;DHT22;3309;48.708;9.290;2024-01-10T09:03:24;7.10;1.00
6552;DHT22;3309;48.708;9.290;2024-01-10T09:05:50;6.90;1.00
6552;DHT22;3309;48.708;9.290;2024-01-10T09:08:15;6.70;1.00
6552;DHT22;3309;48.708;9.290;2024-01-10T09:10:41;6.70;1.00
6552;DHT22;3309;48.708;9.290;2024-01-10T09:13:07;7.00;1.00
6552;DHT22;3309;48.708;9.290;2024-01-10T09:15:32;7.20;1.00
6552;DHT22;3309;48.708;9.290;2024-01-10T09:17:58;7.50;1.00
6552;DHT22;3309;48.708;9.290;2024-01-10T09:20:23;7.30;1.00
6552;DHT22;3309;48.708;9.290;2024-01-10T09:22:50;7.40;1.00
6552;DHT22;3309;48.708;9.290;2024-01-10T09:25:16;7.30;1.00
6552;DHT22;3309;48.708;9.290;2024-01-10T09:27:42;6.80;1.00
6552;DHT22;3309;48.708;9.290;2024-01-10T09:30:09;5.80;1.00
6552;DHT22;3309;48.708;9.290;2024-01-10T09:32:35;5.30;1.00
6552;DHT22;3309;48.708;9.290;2024-01-10T09:35:01;4.90;1.00
6552;DHT22;3309;48.708;9.290;2024-01-10T09:37:27;5.20;1.00
6552;DHT22;3309;48.708;9.290;2024-01-10T09:39:52;5.70;1.00
6552;DHT22;3309;48.708;9.290;2024-01-10T09:42:19;5.90;1.00
6552;DHT22;3309;48.708;9.290;2024-01-10T09:44:47;6.20;1.00
6552;DHT22;3309;48.708;9.290;2024-01-10T09:47:15;6.40;1.00
6552;DHT22;3309;48.708;9.290;2024-01-10T09:49:41;6.90;1.00
6552;DHT22;3309;48.708;9.290;2024-01-10T09:52:10;7.50;1.00
6552;DHT22;3309;48.708;9.290;2024-01-10T09:54:38;8.40;1.00
6552;DHT22;3309;48.708;9.290;2024-01-10T09:57:05;8.70;1.00
6552;DHT22;3309;48.708;9.290;2024-01-10T09:59:31;8.80;1.00
6552;DHT22;3309;48.708;9.290;2024-01-10T10:01:59;8.60;1.00
6552;DHT22;3309;48.708;9.290;2024-01-10T10:04:27;7.90;1.00
6552;DHT22;3309;48.708;9.290;2024-01-10T10:07:00;7.60;1.00
6552;DHT22;3309;48.708;9.290;2024-01-10T10:09:27;6.90;1.00
6552;DHT22;3309;48.708;9.290;2024-01-10T10:11:56;6.90;1.00
6552;DHT22;3309;48.708;9.290;2024-01-10T10:14:28;6.80;1.00
6552;DHT22;3309;48.708;9.290;2024-01-10T10:16:54;6.80;1.00
6552;DHT22;3309;48.708;9.290;2024-01-10T10:19:25;6.80;1.00
6552;DHT22;3309;48.708;9.290;2024-01-10T10:21:51;7.10;1.00
6552;DHT22;3309;48.708;9.290;2024-01-10T10:24:17;7.00;1.00
6552;DHT22;3309;48.708;9.290;2024-01-10T10:26:42;7.20;1.00
6552;DHT22;3309;48.708;9.290;2024-01-10T10:29:10;8.30;1.00
6552;DHT22;3309;48.708;9.290;2024-01-10T10:31:35;8.60;1.00
6552;DHT22;3309;48.708;9.290;2024-01-10T10:34:02;9.20;1.00
6552;DHT22;3309;48.708;9.290;2024-01-10T10:36:32;8.90;1.00
6552;DHT22;3309;48.708;9.290;2024-01-10T10:38:59;8.80;1.00
6552;DHT22;3309;48.708;9.290;2024-01-10T10:41:29;8.80;1.00
6552;DHT22;3309;48.708;9.290;2024-01-10T10:43:56;9.10;1.00
6552;DHT22;3309;48.708;9.290;2024-01-10T10:46:23;9.10;1.00
6552;DHT22;3309;48.708;9.290;2024-01-10T10:48:52;9.10;1.00
6552;DHT22;3309;48.708;9.290;2024-01-10T10:51:27;8.50;1.00
6552;DHT22;3309;48.708;9.290;2024-01-10T10:53:56;7.40;1.00
6552;DHT22;3309;48.708;9.290;2024-01-10T10:56:29;7.90;1.00
6552;DHT22;3309;48.708;9.290;2024-01-10T10:58:56;7.60;1.00
6552;DHT22;3309;48.708;9.290;2024-01-10T11:01:23;7.20;1.00
6552;DHT22;3309;48.708;9.290;2024-01-10T11:03:48;7.30;1.00
6552;DHT22;3309;48.708;9.290;2024-01-10T11:06:14;7.10;1.00
6552;DHT22;3309;48.708;9.290;2024-01-10T11:08:46;7.00;1.00
6552;DHT22;3309;48.708;9.290;2024-01-10T11:19:43;7.80;1.00
6552;DHT22;3309;48.708;9.290;2024-01-10T11:22:18;7.70;1.00
6552;DHT22;3309;48.708;9.290;2024-01-10T11:24:45;7.40;1.00
6552;DHT22;3309;48.708;9.290;2024-01-10T11:27:15;7.80;1.00
6552;DHT22;3309;48.708;9.290;2024-01-10T11:29:41;8.10;1.00
6552;DHT22;3309;48.708;9.290;2024-01-10T11:32:17;8.60;1.00
6552;DHT22;3309;48.708;9.290;2024-01-10T11:37:28;7.60;1.00
6552;DHT22;3309;48.708;9.290;2024-01-10T11:40:03;7.30;1.00
6552;DHT22;3309;48.708;9.290;2024-01-10T11:42:46;6.90;1.00
6552;DHT22;3309;48.708;9.290;2024-01-10T11:47:59;6.50;1.00
6552;DHT22;3309;48.708;9.290;2024-01-10T11:50:25;6.50;1.00
6552;DHT22;3309;48.708;9.290;2024-01-10T11:52:55;6.40;1.00
6552;DHT22;3309;48.708;9.290;2024-01-10T11:55:50;6.20;1.00
6552;DHT22;3309;48.708;9.290;2024-01-10T11:58:17;5.60;1.00
6552;DHT22;3309;48.708;9.290;2024-01-10T12:00:43;5.20;1.00
6552;DHT22;3309;48.708;9.290;2024-01-10T12:03:11;5.20;1.00
6552;DHT22;3309;48.708;9.290;2024-01-10T12:05:36;4.90;1.00
6552;DHT22;3309;48.708;9.290;2024-01-10T12:08:07;4.90;1.00
6552;DHT22;3309;48.708;9.290;2024-01-10T12:10:33;4.90;1.00
6552;DHT22;3309;48.708;9.290;2024-01-10T12:13:03;4.90;1.00
6552;DHT22;3309;48.708;9.290;2024-01-10T12:15:29;4.90;1.00
6552;DHT22;3309;48.708;9.290;2024-01-10T12:17:55;4.90;1.00
6552;DHT22;3309;48.708;9.290;2024-01-10T12:20:21;4.90;1.00
6552;DHT22;3309;48.708;9.290;2024-01-10T12:22:47;4.90;1.00
6552;DHT22;3309;48.708;9.290;2024-01-10T12:25:12;4.60;1.00
6552;DHT22;3309;48.708;9.290;2024-01-10T12:27:38;4.60;1.00
6552;DHT22;3309;48.708;9.290;2024-01-10T12:30:05;4.60;1.00
6552;DHT22;3309;48.708;9.290;2024-01-10T12:32:31;4.70;1.00
6552;DHT22;3309;48.708;9.290;2024-01-10T12:35:04;4.80;1.00
6552;DHT22;3309;48.708;9.290;2024-01-10T12:37:30;5.00;1.00
6552;DHT22;3309;48.708;9.290;2024-01-10T12:39:56;5.10;1.00
6552;DHT22;3309;48.708;9.290;2024-01-10T12:42:22;5.60;1.00
6552;DHT22;3309;48.708;9.290;2024-01-10T12:44:49;5.80;1.00
6552;DHT22;3309;48.708;9.290;2024-01-10T12:47:22;5.90;1.00
6552;DHT22;3309;48.708;9.290;2024-01-10T12:49:49;6.50;1.00
6552;DHT22;3309;48.708;9.290;2024-01-10T12:52:15;7.40;1.00
6552;DHT22;3309;48.708;9.290;2024-01-10T12:54:40;8.30;1.00
6552;DHT22;3309;48.708;9.290;2024-01-10T12:57:06;9.10;1.00
6552;DHT22;3309;48.708;9.290;2024-01-10T12:59:34;9.30;1.00
6552;DHT22;3309;48.708;9.290;2024-01-10T13:02:00;9.70;1.00
6552;DHT22;3309;48.708;9.290;2024-01-10T13:04:26;9.90;1.00
6552;DHT22;3309;48.708;9.290;2024-01-10T13:06:52;10.50;1.00
6552;DHT22;3309;48.708;9.290;2024-01-10T13:09:18;11.00;1.00
6552;DHT22;3309;48.708;9.290;2024-01-10T13:11:43;11.30;1.00
6552;DHT22;3309;48.708;9.290;2024-01-10T13:14:11;11.60;1.00
6552;DHT22;3309;48.708;9.290;2024-01-10T13:16:37;11.40;1.00
6552;DHT22;3309;48.708;9.290;2024-01-10T13:19:03;11.70;1.00
6552;DHT22;3309;48.708;9.290;2024-01-10T13:21:28;11.90;1.00
6552;DHT22;3309;48.708;9.290;2024-01-10T13:23:54;11.70;1.00
6552;DHT22;3309;48.708;9.290;2024-01-10T13:26:20;11.60;1.00
6552;DHT22;3309;48.708;9.290;2024-01-10T13:28:46;11.40;1.00
6552;DHT22;3309;48.708;9.290;2024-01-10T13:31:11;10.70;1.00
6552;DHT22;3309;48.708;9.290;2024-01-10T13:33:39;10.80;1.00
6552;DHT22;3309;48.708;9.290;2024-01-10T13:36:05;11.10;1.00
6552;DHT22;3309;48.708;9.290;2024-01-10T13:38:31;10.70;1.00
6552;DHT22;3309;48.708;9.290;2024-01-10T13:40:56;10.50;1.00
6552;DHT22;3309;48.708;9.290;2024-01-10T13:43:22;10.80;1.00
6552;DHT22;3309;48.708;9.290;2024-01-10T13:45:48;10.90;1.00
6552;DHT22;3309;48.708;9.290;2024-01-10T13:48:14;10.60;1.00
6552;DHT22;3309;48.708;9.290;2024-01-10T13:50:39;10.70;1.00
6552;DHT22;3309;48.708;9.290;2024-01-10T13:53:05;10.90;1.00
6552;DHT22;3309;48.708;9.290;2024-01-10T13:55:31;10.40;1.00
6552;DHT22;3309;48.708;9.290;2024-01-10T13:57:57;10.10;1.00
6552;DHT22;3309;48.708;9.290;2024-01-10T14:00:23;10.00;1.00
6552;DHT22;3309;48.708;9.290;2024-01-10T14:02:48;9.90;1.00
6552;DHT22;3309;48.708;9.290;2024-01-10T14:05:14;9.20;1.00
6552;DHT22;3309;48.708;9.290;2024-01-10T14:07:41;7.70;1.00
6552;DHT22;3309;48.708;9.290;2024-01-10T14:10:10;7.20;1.00
6552;DHT22;3309;48.708;9.290;2024-01-10T14:12:36;7.30;1.00
6552;DHT22;3309;48.708;9.290;2024-01-10T14:15:02;7.40;1.00
6552;DHT22;3309;48.708;9.290;2024-01-10T14:17:29;7.70;1.00
6552;DHT22;3309;48.708;9.290;2024-01-10T14:19:55;8.10;1.00
6552;DHT22;3309;48.708;9.290;2024-01-10T14:22:21;8.40;1.00
6552;DHT22;3309;48.708;9.290;2024-01-10T14:24:46;8.80;1.00
6552;DHT22;3309;48.708;9.290;2024-01-10T14:27:12;8.50;1.00
6552;DHT22;3309;48.708;9.290;2024-01-10T14:29:37;8.10;1.00
6552;DHT22;3309;48.708;9.290;2024-01-10T14:32:03;7.20;1.00
6552;DHT22;3309;48.708;9.290;2024-01-10T14:34:29;6.90;1.00
6552;DHT22;3309;48.708;9.290;2024-01-10T14:36:54;6.60;1.00
6552;DHT22;3309;48.708;9.290;2024-01-10T14:39:20;6.40;1.00
6552;DHT22;3309;48.708;9.290;2024-01-10T14:41:46;6.30;1.00
6552;DHT22;3309;48.708;9.290;2024-01-10T14:44:12;6.20;1.00
6552;DHT22;3309;48.708;9.290;2024-01-10T14:46:38;6.10;1.00
6552;DHT22;3309;48.708;9.290;2024-01-10T14:49:04;5.90;1.00
6552;DHT22;3309;48.708;9.290;2024-01-10T14:51:29;5.80;1.00
6552;DHT22;3309;48.708;9.290;2024-01-10T14:53:55;5.70;1.00
6552;DHT22;3309;48.708;9.290;2024-01-10T14:56:21;5.60;1.00
6552;DHT22;3309;48.708;9.290;2024-01-10T14:58:48;5.40;1.00
6552;DHT22;3309;48.708;9.290;2024-01-10T15:01:16;5.20;1.00
6552;DHT22;3309;48.708;9.290;2024-01-10T15:03:42;5.60;1.00
6552;DHT22;3309;48.708;9.290;2024-01-10T15:06:08;4.90;1.00
6552;DHT22;3309;48.708;9.290;2024-01-10T15:08:33;4.70;1.00
6552;DHT22;3309;48.708;9.290;2024-01-10T15:10:59;4.50;1.00
6552;DHT22;3309;48.708;9.290;2024-01-10T15:13:25;4.30;1.00
6552;DHT22;3309;48.708;9.290;2024-01-10T15:15:51;4.20;1.00
6552;DHT22;3309;48.708;9.290;2024-01-10T15:18:16;3.80;1.00
6552;DHT22;3309;48.708;9.290;2024-01-10T15:20:42;3.60;1.00
6552;DHT22;3309;48.708;9.290;2024-01-10T15:23:08;3.30;1.00
6552;DHT22;3309;48.708;9.290;2024-01-10T15:25:35;3.00;1.00
6552;DHT22;3309;48.708;9.290;2024-01-10T15:28:01;2.80;1.00
6552;DHT22;3309;48.708;9.290;2024-01-10T15:30:29;2.60;1.00
6552;DHT22;3309;48.708;9.290;2024-01-10T15:32:54;2.50;1.00
6552;DHT22;3309;48.708;9.290;2024-01-10T15:35:20;2.50;1.00
6552;DHT22;3309;48.708;9.290;2024-01-10T15:37:45;2.20;1.00
6552;DHT22;3309;48.708;9.290;2024-01-10T15:40:11;2.10;1.00
6552;DHT22;3309;48.708;9.290;2024-01-10T15:42:37;1.90;1.00
6552;DHT22;3309;48.708;9.290;2024-01-10T15:45:05;1.90;1.00
6552;DHT22;3309;48.708;9.290;2024-01-10T15:47:31;1.70;1.00
6552;DHT22;3309;48.708;9.290;2024-01-10T15:49:57;1.60;1.00
6552;DHT22;3309;48.708;9.290;2024-01-10T15:52:22;1.40;1.00
6552;DHT22;3309;48.708;9.290;2024-01-10T15:54:52;1.30;1.00
6552;DHT22;3309;48.708;9.290;2024-01-10T15:57:23;1.30;1.00
6552;DHT22;3309;48.708;9.290;2024-01-10T15:59:49;1.20;1.00
6552;DHT22;3309;48.708;9.290;2024-01-10T16:02:15;1.10;1.00
6552;DHT22;3309;48.708;9.290;2024-01-10T16:04:41;1.00;1.00
6552;DHT22;3309;48.708;9.290;2024-01-10T16:07:06;0.90;1.00
6552;DHT22;3309;48.708;9.290;2024-01-10T16:09:32;0.90;1.00
6552;DHT22;3309;48.708;9.290;2024-01-10T16:11:57;0.90;13.40
6552;DHT22;3309;48.708;9.290;2024-01-10T16:14:23;0.80;93.70
6552;DHT22;3309;48.708;9.290;2024-01-10T16:16:49;0.80;81.00
6552;DHT22;3309;48.708;9.290;2024-01-10T16:19:15;0.70;97.90
6552;DHT22;3309;48.708;9.290;2024-01-10T16:21:41;0.60;99.90
6552;DHT22;3309;48.708;9.290;2024-01-10T16:24:08;0.60;99.90
6552;DHT22;3309;48.708;9.290;2024-01-10T16:26:34;0.60;99.90
6552;DHT22;3309;48.708;9.290;2024-01-10T16:28:59;0.60;99.90
6552;DHT22;3309;48.708;9.290;2024-01-10T16:31:26;0.50;99.90
6552;DHT22;3309;48.708;9.290;2024-01-10T16:33:52;0.50;99.90